sensor_id;sensor_type;location;lat;lon;timestamp;P1;durP1;ratioP1;P2;durP2;ratioP2
16346;SDS011;8283;48.504;13.734;2024-01-15T00:00:55;10.23;;;5.05;;
16346;SDS011;8283;48.504;13.734;2024-01-15T00:03:15;10.00;;;3.78;;
16346;SDS011;8283;48.504;13.734;2024-01-15T00:05:34;9.50;;;4.28;;
16346;SDS011;8283;48.504;13.734;2024-01-15T00:07:54;9.82;;;4.70;;
16346;SDS011;8283;48.504;13.734;2024-01-15T00:10:13;8.05;;;4.00;;
16346;SDS011;8283;48.504;13.734;2024-01-15T00:12:33;11.52;;;5.13;;
16346;SDS011;8283;48.504;13.734;2024-01-15T00:14:53;9.48;;;3.90;;
16346;SDS011;8283;48.504;13.734;2024-01-15T00:17:13;10.82;;;4.95;;
16346;SDS011;8283;48.504;13.734;2024-01-15T00:19:32;16.10;;;5.65;;
16346;SDS011;8283;48.504;13.734;2024-01-15T00:21:52;12.73;;;4.38;;
16346;SDS011;8283;48.504;13.734;2024-01-15T00:24:11;11.05;;;4.40;;
16346;SDS011;8283;48.504;13.734;2024-01-15T00:26:30;12.13;;;4.90;;
16346;SDS011;8283;48.504;13.734;2024-01-15T00:28:50;10.60;;;4.97;;
16346;SDS011;8283;48.504;13.734;2024-01-15T00:31:09;10.05;;;4.55;;
16346;SDS011;8283;48.504;13.734;2024-01-15T00:33:28;10.10;;;4.45;;
16346;SDS011;8283;48.504;13.734;2024-01-15T00:35:48;10.50;;;3.95;;
16346;SDS011;8283;48.504;13.734;2024-01-15T00:38:07;11.18;;;4.53;;
16346;SDS011;8283;48.504;13.734;2024-01-15T00:40:26;12.85;;;5.32;;
16346;SDS011;8283;48.504;13.734;2024-01-15T00:42:46;9.85;;;4.80;;
16346;SDS011;8283;48.504;13.734;2024-01-15T00:45:05;10.80;;;4.38;;
16346;SDS011;8283;48.504;13.734;2024-01-15T00:47:26;11.93;;;4.80;;
16346;SDS011;8283;48.504;13.734;2024-01-15T00:49:46;10.05;;;5.35;;
16346;SDS011;8283;48.504;13.734;2024-01-15T00:52:05;12.35;;;4.85;;
16346;SDS011;8283;48.504;13.734;2024-01-15T00:54:24;11.63;;;4.85;;
16346;SDS011;8283;48.504;13.734;2024-01-15T00:56:44;9.75;;;4.53;;
16346;SDS011;8283;48.504;13.734;2024-01-15T00:59:03;12.02;;;5.20;;
16346;SDS011;8283;48.504;13.734;2024-01-15T01:01:23;11.77;;;4.65;;
16346;SDS011;8283;48.504;13.734;2024-01-15T01:03:42;9.90;;;4.35;;
16346;SDS011;8283;48.504;13.734;2024-01-15T01:06:01;10.82;;;4.90;;
16346;SDS011;8283;48.504;13.734;2024-01-15T01:08:20;10.65;;;4.65;;
16346;SDS011;8283;48.504;13.734;2024-01-15T01:10:40;13.10;;;5.25;;
16346;SDS011;8283;48.504;13.734;2024-01-15T01:13:01;11.95;;;4.90;;
16346;SDS011;8283;48.504;13.734;2024-01-15T01:15:21;10.93;;;4.50;;
16346;SDS011;8283;48.504;13.734;2024-01-15T01:17:41;11.75;;;4.57;;
16346;SDS011;8283;48.504;13.734;2024-01-15T01:20:00;9.88;;;4.60;;
16346;SDS011;8283;48.504;13.734;2024-01-15T01:22:23;11.77;;;4.35;;
16346;SDS011;8283;48.504;13.734;2024-01-15T01:24:42;10.05;;;4.78;;
16346;SDS011;8283;48.504;13.734;2024-01-15T01:27:02;9.85;;;4.63;;
16346;SDS011;8283;48.504;13.734;2024-01-15T01:29:21;8.02;;;4.40;;
16346;SDS011;8283;48.504;13.734;2024-01-15T01:31:44;11.07;;;4.82;;
16346;SDS011;8283;48.504;13.734;2024-01-15T01:34:04;9.93;;;4.13;;
16346;SDS011;8283;48.504;13.734;2024-01-15T01:36:23;11.32;;;3.90;;
16346;SDS011;8283;48.504;13.734;2024-01-15T01:38:42;13.70;;;4.65;;
16346;SDS011;8283;48.504;13.734;2024-01-15T01:41:02;9.02;;;4.07;;
16346;SDS011;8283;48.504;13.734;2024-01-15T01:43:21;11.68;;;4.85;;
16346;SDS011;8283;48.504;13.734;2024-01-15T01:45:40;14.95;;;5.07;;
16346;SDS011;8283;48.504;13.734;2024-01-15T01:48:00;9.55;;;4.63;;
16346;SDS011;8283;48.504;13.734;2024-01-15T01:50:19;14.00;;;4.55;;
16346;SDS011;8283;48.504;13.734;2024-01-15T01:52:39;11.02;;;4.45;;
16346;SDS011;8283;48.504;13.734;2024-01-15T01:54:59;12.40;;;4.57;;
16346;SDS011;8283;48.504;13.734;2024-01-15T01:57:20;14.85;;;5.30;;
16346;SDS011;8283;48.504;13.734;2024-01-15T01:59:40;16.10;;;5.00;;
16346;SDS011;8283;48.504;13.734;2024-01-15T02:02:00;12.10;;;5.40;;
16346;SDS011;8283;48.504;13.734;2024-01-15T02:04:23;13.90;;;4.60;;
16346;SDS011;8283;48.504;13.734;2024-01-15T02:06:43;14.18;;;4.70;;
16346;SDS011;8283;48.504;13.734;2024-01-15T02:09:03;16.00;;;6.05;;
16346;SDS011;8283;48.504;13.734;2024-01-15T02:11:24;11.75;;;4.75;;
16346;SDS011;8283;48.504;13.734;2024-01-15T02:13:43;16.77;;;5.82;;
16346;SDS011;8283;48.504;13.734;2024-01-15T02:16:02;11.02;;;4.57;;
16346;SDS011;8283;48.504;13.734;2024-01-15T02:18:22;11.38;;;4.75;;
16346;SDS011;8283;48.504;13.734;2024-01-15T02:20:41;14.75;;;4.95;;
16346;SDS011;8283;48.504;13.734;2024-01-15T02:23:10;11.27;;;4.63;;
16346;SDS011;8283;48.504;13.734;2024-01-15T02:25:31;14.27;;;5.50;;
16346;SDS011;8283;48.504;13.734;2024-01-15T02:27:50;12.38;;;5.05;;
16346;SDS011;8283;48.504;13.734;2024-01-15T02:30:10;11.05;;;4.45;;
16346;SDS011;8283;48.504;13.734;2024-01-15T02:32:30;8.63;;;4.32;;
16346;SDS011;8283;48.504;13.734;2024-01-15T02:34:49;13.10;;;5.00;;
16346;SDS011;8283;48.504;13.734;2024-01-15T02:37:08;7.65;;;3.92;;
16346;SDS011;8283;48.504;13.734;2024-01-15T02:39:28;10.90;;;4.85;;
16346;SDS011;8283;48.504;13.734;2024-01-15T02:41:47;13.40;;;5.13;;
16346;SDS011;8283;48.504;13.734;2024-01-15T02:44:07;13.60;;;6.22;;
16346;SDS011;8283;48.504;13.734;2024-01-15T02:46:26;15.43;;;6.35;;
16346;SDS011;8283;48.504;13.734;2024-01-15T02:48:45;12.00;;;6.72;;
16346;SDS011;8283;48.504;13.734;2024-01-15T02:51:05;9.88;;;5.13;;
16346;SDS011;8283;48.504;13.734;2024-01-15T02:53:24;13.57;;;6.13;;
16346;SDS011;8283;48.504;13.734;2024-01-15T02:55:43;14.88;;;6.40;;
16346;SDS011;8283;48.504;13.734;2024-01-15T02:58:03;12.50;;;4.90;;
16346;SDS011;8283;48.504;13.734;2024-01-15T03:00:23;15.90;;;6.70;;
16346;SDS011;8283;48.504;13.734;2024-01-15T03:02:44;15.32;;;6.22;;
16346;SDS011;8283;48.504;13.734;2024-01-15T03:05:03;11.07;;;5.72;;
16346;SDS011;8283;48.504;13.734;2024-01-15T03:07:23;12.88;;;6.50;;
16346;SDS011;8283;48.504;13.734;2024-01-15T03:09:42;12.00;;;6.03;;
16346;SDS011;8283;48.504;13.734;2024-01-15T03:12:01;15.40;;;7.05;;
16346;SDS011;8283;48.504;13.734;2024-01-15T03:14:21;14.45;;;6.13;;
16346;SDS011;8283;48.504;13.734;2024-01-15T03:16:43;12.27;;;6.00;;
16346;SDS011;8283;48.504;13.734;2024-01-15T03:19:02;14.02;;;6.10;;
16346;SDS011;8283;48.504;13.734;2024-01-15T03:21:22;11.30;;;6.10;;
16346;SDS011;8283;48.504;13.734;2024-01-15T03:23:41;13.60;;;6.47;;
16346;SDS011;8283;48.504;13.734;2024-01-15T03:26:01;12.32;;;6.43;;
16346;SDS011;8283;48.504;13.734;2024-01-15T03:28:20;12.02;;;5.63;;
16346;SDS011;8283;48.504;13.734;2024-01-15T03:30:39;11.25;;;5.60;;
16346;SDS011;8283;48.504;13.734;2024-01-15T03:32:58;11.77;;;5.50;;
16346;SDS011;8283;48.504;13.734;2024-01-15T03:35:18;13.18;;;6.57;;
16346;SDS011;8283;48.504;13.734;2024-01-15T03:37:37;14.30;;;7.07;;
16346;SDS011;8283;48.504;13.734;2024-01-15T03:39:56;14.50;;;6.63;;
16346;SDS011;8283;48.504;13.734;2024-01-15T03:42:16;19.77;;;7.85;;
16346;SDS011;8283;48.504;13.734;2024-01-15T03:44:35;13.88;;;6.25;;
16346;SDS011;8283;48.504;13.734;2024-01-15T03:46:54;14.38;;;7.40;;
16346;SDS011;8283;48.504;13.734;2024-01-15T03:49:14;12.75;;;6.60;;
16346;SDS011;8283;48.504;13.734;2024-01-15T03:51:33;12.60;;;6.53;;
16346;SDS011;8283;48.504;13.734;2024-01-15T03:53:53;14.32;;;6.15;;
16346;SDS011;8283;48.504;13.734;2024-01-15T03:56:12;12.25;;;5.40;;
16346;SDS011;8283;48.504;13.734;2024-01-15T03:58:33;14.77;;;6.30;;
16346;SDS011;8283;48.504;13.734;2024-01-15T04:00:52;12.45;;;6.47;;
16346;SDS011;8283;48.504;13.734;2024-01-15T04:03:11;12.52;;;6.45;;
16346;SDS011;8283;48.504;13.734;2024-01-15T04:05:30;14.02;;;6.47;;
16346;SDS011;8283;48.504;13.734;2024-01-15T04:07:49;12.10;;;5.18;;
16346;SDS011;8283;48.504;13.734;2024-01-15T04:10:09;13.25;;;6.45;;
16346;SDS011;8283;48.504;13.734;2024-01-15T04:12:28;12.88;;;5.22;;
16346;SDS011;8283;48.504;13.734;2024-01-15T04:14:48;12.52;;;5.82;;
16346;SDS011;8283;48.504;13.734;2024-01-15T04:17:07;11.27;;;5.25;;
16346;SDS011;8283;48.504;13.734;2024-01-15T04:19:26;14.88;;;7.38;;
16346;SDS011;8283;48.504;13.734;2024-01-15T04:21:46;12.10;;;5.03;;
16346;SDS011;8283;48.504;13.734;2024-01-15T04:24:05;14.68;;;5.70;;
16346;SDS011;8283;48.504;13.734;2024-01-15T04:26:25;13.68;;;5.60;;
16346;SDS011;8283;48.504;13.734;2024-01-15T04:28:44;9.60;;;5.15;;
16346;SDS011;8283;48.504;13.734;2024-01-15T04:31:03;13.80;;;6.18;;
16346;SDS011;8283;48.504;13.734;2024-01-15T04:33:22;13.57;;;5.60;;
16346;SDS011;8283;48.504;13.734;2024-01-15T04:35:41;15.90;;;6.68;;
16346;SDS011;8283;48.504;13.734;2024-01-15T04:38:01;12.25;;;5.80;;
16346;SDS011;8283;48.504;13.734;2024-01-15T04:40:20;9.88;;;4.20;;
16346;SDS011;8283;48.504;13.734;2024-01-15T04:42:40;11.73;;;4.55;;
16346;SDS011;8283;48.504;13.734;2024-01-15T04:44:59;12.23;;;5.82;;
16346;SDS011;8283;48.504;13.734;2024-01-15T04:47:18;11.52;;;5.78;;
16346;SDS011;8283;48.504;13.734;2024-01-15T04:49:38;14.10;;;6.32;;
16346;SDS011;8283;48.504;13.734;2024-01-15T04:51:57;14.27;;;7.35;;
16346;SDS011;8283;48.504;13.734;2024-01-15T04:54:16;14.32;;;5.65;;
16346;SDS011;8283;48.504;13.734;2024-01-15T04:56:36;13.40;;;5.60;;
16346;SDS011;8283;48.504;13.734;2024-01-15T04:58:56;11.90;;;5.53;;
16346;SDS011;8283;48.504;13.734;2024-01-15T05:01:16;14.85;;;6.75;;
16346;SDS011;8283;48.504;13.734;2024-01-15T05:03:36;12.48;;;6.07;;
16346;SDS011;8283;48.504;13.734;2024-01-15T05:05:55;12.50;;;6.00;;
16346;SDS011;8283;48.504;13.734;2024-01-15T05:08:14;11.43;;;6.38;;
16346;SDS011;8283;48.504;13.734;2024-01-15T05:10:33;16.52;;;6.30;;
16346;SDS011;8283;48.504;13.734;2024-01-15T05:12:53;11.60;;;5.65;;
16346;SDS011;8283;48.504;13.734;2024-01-15T05:15:12;11.75;;;5.63;;
16346;SDS011;8283;48.504;13.734;2024-01-15T05:17:32;14.15;;;6.38;;
16346;SDS011;8283;48.504;13.734;2024-01-15T05:19:51;13.48;;;5.18;;
16346;SDS011;8283;48.504;13.734;2024-01-15T05:22:11;13.80;;;6.05;;
16346;SDS011;8283;48.504;13.734;2024-01-15T05:24:30;12.05;;;5.57;;
16346;SDS011;8283;48.504;13.734;2024-01-15T05:26:49;14.80;;;5.75;;
16346;SDS011;8283;48.504;13.734;2024-01-15T05:29:09;12.65;;;6.30;;
16346;SDS011;8283;48.504;13.734;2024-01-15T05:31:28;9.75;;;5.03;;
16346;SDS011;8283;48.504;13.734;2024-01-15T05:33:47;10.93;;;5.45;;
16346;SDS011;8283;48.504;13.734;2024-01-15T05:36:10;11.27;;;5.55;;
16346;SDS011;8283;48.504;13.734;2024-01-15T05:38:29;12.25;;;5.28;;
16346;SDS011;8283;48.504;13.734;2024-01-15T05:40:48;12.30;;;5.90;;
16346;SDS011;8283;48.504;13.734;2024-01-15T05:43:08;12.70;;;6.00;;
16346;SDS011;8283;48.504;13.734;2024-01-15T05:45:27;12.80;;;5.63;;
16346;SDS011;8283;48.504;13.734;2024-01-15T05:47:48;10.55;;;5.43;;
16346;SDS011;8283;48.504;13.734;2024-01-15T05:50:08;11.30;;;5.75;;
16346;SDS011;8283;48.504;13.734;2024-01-15T05:52:27;12.95;;;5.88;;
16346;SDS011;8283;48.504;13.734;2024-01-15T05:54:47;13.45;;;6.25;;
16346;SDS011;8283;48.504;13.734;2024-01-15T05:57:06;17.02;;;7.40;;
16346;SDS011;8283;48.504;13.734;2024-01-15T05:59:25;12.07;;;5.95;;
16346;SDS011;8283;48.504;13.734;2024-01-15T06:01:45;11.85;;;5.47;;
16346;SDS011;8283;48.504;13.734;2024-01-15T06:04:04;11.00;;;5.30;;
16346;SDS011;8283;48.504;13.734;2024-01-15T06:06:24;14.18;;;5.88;;
16346;SDS011;8283;48.504;13.734;2024-01-15T06:08:43;12.60;;;5.00;;
16346;SDS011;8283;48.504;13.734;2024-01-15T06:11:02;12.70;;;6.10;;
16346;SDS011;8283;48.504;13.734;2024-01-15T06:13:22;13.93;;;5.97;;
16346;SDS011;8283;48.504;13.734;2024-01-15T06:15:41;11.73;;;5.82;;
16346;SDS011;8283;48.504;13.734;2024-01-15T06:18:00;11.30;;;5.00;;
16346;SDS011;8283;48.504;13.734;2024-01-15T06:20:20;10.40;;;4.78;;
16346;SDS011;8283;48.504;13.734;2024-01-15T06:22:39;14.65;;;5.57;;
16346;SDS011;8283;48.504;13.734;2024-01-15T06:24:58;11.18;;;5.03;;
16346;SDS011;8283;48.504;13.734;2024-01-15T06:27:18;9.90;;;4.93;;
16346;SDS011;8283;48.504;13.734;2024-01-15T06:29:37;12.55;;;6.07;;
16346;SDS011;8283;48.504;13.734;2024-01-15T06:31:58;12.07;;;5.10;;
16346;SDS011;8283;48.504;13.734;2024-01-15T06:34:17;11.93;;;5.07;;
16346;SDS011;8283;48.504;13.734;2024-01-15T06:36:37;9.40;;;4.63;;
16346;SDS011;8283;48.504;13.734;2024-01-15T06:38:57;11.65;;;5.28;;
16346;SDS011;8283;48.504;13.734;2024-01-15T06:41:16;9.80;;;5.53;;
16346;SDS011;8283;48.504;13.734;2024-01-15T06:43:35;12.13;;;6.10;;
16346;SDS011;8283;48.504;13.734;2024-01-15T06:45:54;12.43;;;5.65;;
16346;SDS011;8283;48.504;13.734;2024-01-15T06:48:14;9.68;;;5.35;;
16346;SDS011;8283;48.504;13.734;2024-01-15T06:50:35;12.63;;;5.53;;
16346;SDS011;8283;48.504;13.734;2024-01-15T06:52:54;10.60;;;5.22;;
16346;SDS011;8283;48.504;13.734;2024-01-15T06:55:14;13.07;;;6.22;;
16346;SDS011;8283;48.504;13.734;2024-01-15T06:57:33;10.32;;;4.65;;
16346;SDS011;8283;48.504;13.734;2024-01-15T06:59:52;9.20;;;4.45;;
16346;SDS011;8283;48.504;13.734;2024-01-15T07:02:12;7.70;;;4.82;;
16346;SDS011;8283;48.504;13.734;2024-01-15T07:04:31;11.10;;;5.18;;
16346;SDS011;8283;48.504;13.734;2024-01-15T07:06:51;10.38;;;5.22;;
16346;SDS011;8283;48.504;13.734;2024-01-15T07:09:10;10.57;;;4.68;;
16346;SDS011;8283;48.504;13.734;2024-01-15T07:11:29;12.13;;;5.70;;
16346;SDS011;8283;48.504;13.734;2024-01-15T07:13:48;8.70;;;4.55;;
16346;SDS011;8283;48.504;13.734;2024-01-15T07:16:08;11.15;;;5.30;;
16346;SDS011;8283;48.504;13.734;2024-01-15T07:18:27;11.20;;;5.03;;
16346;SDS011;8283;48.504;13.734;2024-01-15T07:20:46;10.95;;;5.35;;
16346;SDS011;8283;48.504;13.734;2024-01-15T07:23:05;9.00;;;4.88;;
16346;SDS011;8283;48.504;13.734;2024-01-15T07:25:25;8.40;;;4.72;;
16346;SDS011;8283;48.504;13.734;2024-01-15T07:27:45;11.25;;;5.13;;
16346;SDS011;8283;48.504;13.734;2024-01-15T07:30:05;8.97;;;4.77;;
16346;SDS011;8283;48.504;13.734;2024-01-15T07:32:26;11.07;;;5.07;;
16346;SDS011;8283;48.504;13.734;2024-01-15T07:34:45;7.68;;;4.05;;
16346;SDS011;8283;48.504;13.734;2024-01-15T07:37:04;8.82;;;4.70;;
16346;SDS011;8283;48.504;13.734;2024-01-15T07:39:24;6.90;;;3.78;;
16346;SDS011;8283;48.504;13.734;2024-01-15T07:41:43;9.65;;;4.15;;
16346;SDS011;8283;48.504;13.734;2024-01-15T07:44:03;9.30;;;4.93;;
16346;SDS011;8283;48.504;13.734;2024-01-15T07:46:23;8.98;;;4.05;;
16346;SDS011;8283;48.504;13.734;2024-01-15T07:48:43;11.15;;;5.47;;
16346;SDS011;8283;48.504;13.734;2024-01-15T07:51:03;10.60;;;4.88;;
16346;SDS011;8283;48.504;13.734;2024-01-15T07:53:22;9.30;;;4.28;;
16346;SDS011;8283;48.504;13.734;2024-01-15T07:55:41;8.45;;;4.65;;
16346;SDS011;8283;48.504;13.734;2024-01-15T07:58:01;7.43;;;4.10;;
16346;SDS011;8283;48.504;13.734;2024-01-15T08:00:21;8.02;;;4.70;;
16346;SDS011;8283;48.504;13.734;2024-01-15T08:02:40;7.32;;;4.22;;
16346;SDS011;8283;48.504;13.734;2024-01-15T08:04:59;10.23;;;4.82;;
16346;SDS011;8283;48.504;13.734;2024-01-15T08:07:18;10.52;;;4.60;;
16346;SDS011;8283;48.504;13.734;2024-01-15T08:09:38;7.43;;;3.90;;
16346;SDS011;8283;48.504;13.734;2024-01-15T08:11:58;7.20;;;3.20;;
16346;SDS011;8283;48.504;13.734;2024-01-15T08:14:17;6.43;;;3.40;;
16346;SDS011;8283;48.504;13.734;2024-01-15T08:16:37;8.57;;;3.80;;
16346;SDS011;8283;48.504;13.734;2024-01-15T08:18:56;6.15;;;3.38;;
16346;SDS011;8283;48.504;13.734;2024-01-15T08:21:17;5.70;;;2.80;;
16346;SDS011;8283;48.504;13.734;2024-01-15T08:23:36;7.43;;;3.67;;
16346;SDS011;8283;48.504;13.734;2024-01-15T08:25:56;6.03;;;3.00;;
16346;SDS011;8283;48.504;13.734;2024-01-15T08:28:15;4.00;;;2.47;;
16346;SDS011;8283;48.504;13.734;2024-01-15T08:30:35;6.38;;;3.53;;
16346;SDS011;8283;48.504;13.734;2024-01-15T08:32:54;6.13;;;3.35;;
16346;SDS011;8283;48.504;13.734;2024-01-15T08:35:14;5.03;;;3.30;;
16346;SDS011;8283;48.504;13.734;2024-01-15T08:37:33;5.60;;;3.05;;
16346;SDS011;8283;48.504;13.734;2024-01-15T08:39:52;6.78;;;3.33;;
16346;SDS011;8283;48.504;13.734;2024-01-15T08:42:12;5.80;;;3.05;;
16346;SDS011;8283;48.504;13.734;2024-01-15T08:44:32;8.27;;;2.70;;
16346;SDS011;8283;48.504;13.734;2024-01-15T08:46:51;6.07;;;3.58;;
16346;SDS011;8283;48.504;13.734;2024-01-15T08:49:11;5.20;;;3.35;;
16346;SDS011;8283;48.504;13.734;2024-01-15T08:51:30;5.80;;;2.88;;
16346;SDS011;8283;48.504;13.734;2024-01-15T08:53:49;7.00;;;2.80;;
16346;SDS011;8283;48.504;13.734;2024-01-15T08:56:09;6.68;;;3.17;;
16346;SDS011;8283;48.504;13.734;2024-01-15T08:58:28;4.10;;;2.67;;
16346;SDS011;8283;48.504;13.734;2024-01-15T09:00:47;6.70;;;3.15;;
16346;SDS011;8283;48.504;13.734;2024-01-15T09:03:07;5.50;;;2.95;;
16346;SDS011;8283;48.504;13.734;2024-01-15T09:05:29;5.25;;;2.42;;
16346;SDS011;8283;48.504;13.734;2024-01-15T09:07:49;5.00;;;2.55;;
16346;SDS011;8283;48.504;13.734;2024-01-15T09:10:10;5.20;;;2.70;;
16346;SDS011;8283;48.504;13.734;2024-01-15T09:12:30;3.92;;;2.53;;
16346;SDS011;8283;48.504;13.734;2024-01-15T09:14:49;5.40;;;3.10;;
16346;SDS011;8283;48.504;13.734;2024-01-15T09:17:09;5.18;;;2.78;;
16346;SDS011;8283;48.504;13.734;2024-01-15T09:19:29;5.68;;;2.75;;
16346;SDS011;8283;48.504;13.734;2024-01-15T09:21:48;4.15;;;2.45;;
16346;SDS011;8283;48.504;13.734;2024-01-15T09:24:07;5.95;;;3.08;;
16346;SDS011;8283;48.504;13.734;2024-01-15T09:26:27;3.75;;;2.20;;
16346;SDS011;8283;48.504;13.734;2024-01-15T09:28:46;5.40;;;2.70;;
16346;SDS011;8283;48.504;13.734;2024-01-15T09:31:06;4.80;;;2.85;;
16346;SDS011;8283;48.504;13.734;2024-01-15T09:33:26;6.40;;;3.28;;
16346;SDS011;8283;48.504;13.734;2024-01-15T09:35:46;5.95;;;3.15;;
16346;SDS011;8283;48.504;13.734;2024-01-15T09:38:05;5.95;;;3.00;;
16346;SDS011;8283;48.504;13.734;2024-01-15T09:40:24;7.18;;;3.60;;
16346;SDS011;8283;48.504;13.734;2024-01-15T09:42:49;6.10;;;2.88;;
16346;SDS011;8283;48.504;13.734;2024-01-15T09:45:10;5.00;;;2.70;;
16346;SDS011;8283;48.504;13.734;2024-01-15T09:47:30;4.55;;;2.40;;
16346;SDS011;8283;48.504;13.734;2024-01-15T09:49:49;4.97;;;2.53;;
16346;SDS011;8283;48.504;13.734;2024-01-15T09:52:08;4.00;;;2.35;;
16346;SDS011;8283;48.504;13.734;2024-01-15T09:54:30;5.65;;;2.92;;
16346;SDS011;8283;48.504;13.734;2024-01-15T09:56:49;6.03;;;3.20;;
16346;SDS011;8283;48.504;13.734;2024-01-15T09:59:09;4.13;;;2.40;;
16346;SDS011;8283;48.504;13.734;2024-01-15T10:01:28;4.63;;;2.88;;
16346;SDS011;8283;48.504;13.734;2024-01-15T10:06:09;6.22;;;3.63;;
16346;SDS011;8283;48.504;13.734;2024-01-15T10:08:34;4.90;;;2.80;;
16346;SDS011;8283;48.504;13.734;2024-01-15T10:10:55;5.35;;;2.60;;
16346;SDS011;8283;48.504;13.734;2024-01-15T10:13:15;3.53;;;2.53;;
16346;SDS011;8283;48.504;13.734;2024-01-15T10:15:35;3.13;;;2.40;;
16346;SDS011;8283;48.504;13.734;2024-01-15T10:17:56;6.38;;;2.85;;
16346;SDS011;8283;48.504;13.734;2024-01-15T10:20:15;5.32;;;2.45;;
16346;SDS011;8283;48.504;13.734;2024-01-15T10:22:35;3.92;;;2.42;;
16346;SDS011;8283;48.504;13.734;2024-01-15T10:24:57;4.00;;;2.67;;
16346;SDS011;8283;48.504;13.734;2024-01-15T10:27:17;4.53;;;2.92;;
16346;SDS011;8283;48.504;13.734;2024-01-15T10:29:36;5.90;;;3.00;;
16346;SDS011;8283;48.504;13.734;2024-01-15T10:31:56;4.15;;;2.67;;
16346;SDS011;8283;48.504;13.734;2024-01-15T10:34:15;4.78;;;3.08;;
16346;SDS011;8283;48.504;13.734;2024-01-15T10:36:34;4.80;;;2.38;;
16346;SDS011;8283;48.504;13.734;2024-01-15T10:38:56;6.90;;;3.30;;
16346;SDS011;8283;48.504;13.734;2024-01-15T10:41:16;4.10;;;2.50;;
16346;SDS011;8283;48.504;13.734;2024-01-15T10:43:36;3.95;;;2.20;;
16346;SDS011;8283;48.504;13.734;2024-01-15T10:45:55;5.63;;;2.85;;
16346;SDS011;8283;48.504;13.734;2024-01-15T10:48:18;5.40;;;2.58;;
16346;SDS011;8283;48.504;13.734;2024-01-15T10:50:41;5.38;;;2.90;;
16346;SDS011;8283;48.504;13.734;2024-01-15T10:53:01;4.82;;;2.50;;
16346;SDS011;8283;48.504;13.734;2024-01-15T10:57:42;4.85;;;2.65;;
16346;SDS011;8283;48.504;13.734;2024-01-15T11:00:05;3.88;;;2.17;;
16346;SDS011;8283;48.504;13.734;2024-01-15T11:02:25;4.88;;;2.78;;
16346;SDS011;8283;48.504;13.734;2024-01-15T11:04:45;5.85;;;2.50;;
16346;SDS011;8283;48.504;13.734;2024-01-15T11:07:04;4.20;;;2.72;;
16346;SDS011;8283;48.504;13.734;2024-01-15T11:09:25;5.87;;;3.27;;
16346;SDS011;8283;48.504;13.734;2024-01-15T11:11:45;4.45;;;2.22;;
16346;SDS011;8283;48.504;13.734;2024-01-15T11:14:08;3.13;;;1.70;;
16346;SDS011;8283;48.504;13.734;2024-01-15T11:16:53;3.92;;;2.25;;
16346;SDS011;8283;48.504;13.734;2024-01-15T11:19:15;3.47;;;1.98;;
16346;SDS011;8283;48.504;13.734;2024-01-15T11:21:34;4.28;;;2.70;;
16346;SDS011;8283;48.504;13.734;2024-01-15T11:24:01;4.07;;;2.33;;
16346;SDS011;8283;48.504;13.734;2024-01-15T11:28:57;3.45;;;2.03;;
16346;SDS011;8283;48.504;13.734;2024-01-15T11:31:19;4.15;;;2.30;;
16346;SDS011;8283;48.504;13.734;2024-01-15T11:33:38;3.42;;;2.05;;
16346;SDS011;8283;48.504;13.734;2024-01-15T11:36:08;3.80;;;2.17;;
16346;SDS011;8283;48.504;13.734;2024-01-15T11:38:28;3.00;;;1.75;;
16346;SDS011;8283;48.504;13.734;2024-01-15T11:40:49;3.00;;;2.10;;
16346;SDS011;8283;48.504;13.734;2024-01-15T11:43:09;3.90;;;2.00;;
16346;SDS011;8283;48.504;13.734;2024-01-15T11:45:29;3.13;;;2.17;;
16346;SDS011;8283;48.504;13.734;2024-01-15T11:50:32;3.67;;;2.15;;
16346;SDS011;8283;48.504;13.734;2024-01-15T11:53:36;3.97;;;2.08;;
16346;SDS011;8283;48.504;13.734;2024-01-15T11:55:57;6.10;;;3.30;;
16346;SDS011;8283;48.504;13.734;2024-01-15T11:58:18;4.32;;;2.20;;
16346;SDS011;8283;48.504;13.734;2024-01-15T12:00:42;3.58;;;2.28;;
16346;SDS011;8283;48.504;13.734;2024-01-15T12:03:04;4.22;;;2.10;;
16346;SDS011;8283;48.504;13.734;2024-01-15T12:05:24;4.07;;;2.67;;
16346;SDS011;8283;48.504;13.734;2024-01-15T12:07:44;2.58;;;1.63;;
16346;SDS011;8283;48.504;13.734;2024-01-15T12:10:07;3.42;;;2.17;;
16346;SDS011;8283;48.504;13.734;2024-01-15T12:12:37;3.85;;;2.35;;
16346;SDS011;8283;48.504;13.734;2024-01-15T12:15:03;4.20;;;2.35;;
16346;SDS011;8283;48.504;13.734;2024-01-15T12:17:22;5.25;;;2.20;;
16346;SDS011;8283;48.504;13.734;2024-01-15T12:19:41;4.63;;;2.55;;
16346;SDS011;8283;48.504;13.734;2024-01-15T12:22:02;4.05;;;2.30;;
16346;SDS011;8283;48.504;13.734;2024-01-15T12:24:21;2.92;;;1.95;;
16346;SDS011;8283;48.504;13.734;2024-01-15T12:26:40;4.72;;;2.15;;
16346;SDS011;8283;48.504;13.734;2024-01-15T12:29:05;4.57;;;2.42;;
16346;SDS011;8283;48.504;13.734;2024-01-15T12:31:25;5.05;;;2.58;;
16346;SDS011;8283;48.504;13.734;2024-01-15T12:33:45;4.90;;;2.63;;
16346;SDS011;8283;48.504;13.734;2024-01-15T12:36:04;3.58;;;2.30;;
16346;SDS011;8283;48.504;13.734;2024-01-15T12:38:24;3.58;;;2.38;;
16346;SDS011;8283;48.504;13.734;2024-01-15T12:40:44;5.93;;;2.50;;
16346;SDS011;8283;48.504;13.734;2024-01-15T12:43:05;5.13;;;2.40;;
16346;SDS011;8283;48.504;13.734;2024-01-15T12:45:26;3.50;;;2.27;;
16346;SDS011;8283;48.504;13.734;2024-01-15T12:47:45;4.25;;;2.28;;
16346;SDS011;8283;48.504;13.734;2024-01-15T12:50:08;5.50;;;2.97;;
16346;SDS011;8283;48.504;13.734;2024-01-15T12:52:29;4.40;;;2.58;;
16346;SDS011;8283;48.504;13.734;2024-01-15T12:54:49;4.90;;;2.63;;
16346;SDS011;8283;48.504;13.734;2024-01-15T12:57:09;6.90;;;3.00;;
16346;SDS011;8283;48.504;13.734;2024-01-15T12:59:28;3.22;;;2.03;;
16346;SDS011;8283;48.504;13.734;2024-01-15T13:01:48;6.32;;;2.58;;
16346;SDS011;8283;48.504;13.734;2024-01-15T13:04:08;4.70;;;2.40;;
16346;SDS011;8283;48.504;13.734;2024-01-15T13:06:27;3.63;;;2.55;;
16346;SDS011;8283;48.504;13.734;2024-01-15T13:08:47;3.90;;;2.22;;
16346;SDS011;8283;48.504;13.734;2024-01-15T13:11:06;6.57;;;2.80;;
16346;SDS011;8283;48.504;13.734;2024-01-15T13:13:26;5.10;;;2.28;;
16346;SDS011;8283;48.504;13.734;2024-01-15T13:15:46;4.28;;;2.25;;
16346;SDS011;8283;48.504;13.734;2024-01-15T13:18:05;3.05;;;1.90;;
16346;SDS011;8283;48.504;13.734;2024-01-15T13:20:25;4.57;;;2.40;;
16346;SDS011;8283;48.504;13.734;2024-01-15T13:22:44;3.58;;;1.98;;
16346;SDS011;8283;48.504;13.734;2024-01-15T13:25:04;3.53;;;1.98;;
16346;SDS011;8283;48.504;13.734;2024-01-15T13:29:46;3.65;;;2.22;;
16346;SDS011;8283;48.504;13.734;2024-01-15T13:32:05;3.10;;;2.28;;
16346;SDS011;8283;48.504;13.734;2024-01-15T13:34:25;4.35;;;2.72;;
16346;SDS011;8283;48.504;13.734;2024-01-15T13:36:44;4.40;;;2.50;;
16346;SDS011;8283;48.504;13.734;2024-01-15T13:39:04;4.65;;;2.38;;
16346;SDS011;8283;48.504;13.734;2024-01-15T13:41:27;4.13;;;2.20;;
16346;SDS011;8283;48.504;13.734;2024-01-15T13:43:49;4.68;;;2.17;;
16346;SDS011;8283;48.504;13.734;2024-01-15T13:46:08;4.35;;;2.35;;
16346;SDS011;8283;48.504;13.734;2024-01-15T13:48:28;5.53;;;2.17;;
16346;SDS011;8283;48.504;13.734;2024-01-15T13:50:48;2.90;;;2.03;;
16346;SDS011;8283;48.504;13.734;2024-01-15T13:53:09;3.47;;;2.20;;
16346;SDS011;8283;48.504;13.734;2024-01-15T13:55:29;4.50;;;2.20;;
16346;SDS011;8283;48.504;13.734;2024-01-15T13:57:49;3.88;;;2.22;;
16346;SDS011;8283;48.504;13.734;2024-01-15T14:00:08;2.80;;;1.90;;
16346;SDS011;8283;48.504;13.734;2024-01-15T14:02:30;4.40;;;2.22;;
16346;SDS011;8283;48.504;13.734;2024-01-15T14:04:49;2.10;;;1.77;;
16346;SDS011;8283;48.504;13.734;2024-01-15T14:07:09;3.58;;;2.22;;
16346;SDS011;8283;48.504;13.734;2024-01-15T14:09:28;4.28;;;2.40;;